createdAt,value
2022-11-10T00:02:31.930Z,81.17
2022-11-10T00:05:15.868Z,81.79
2022-11-10T00:07:58.230Z,81.47
2022-11-10T00:10:56.637Z,80.64
2022-11-10T00:14:00.983Z,80.27
2022-11-10T00:17:00.928Z,80.51
2022-11-10T00:19:43.027Z,80.03
2022-11-10T00:22:26.117Z,79.53
2022-11-10T00:25:09.736Z,80.49
2022-11-10T00:27:53.371Z,79.66
2022-11-10T00:30:38.565Z,79.91
2022-11-10T00:33:20.736Z,79.18
2022-11-10T00:36:03.452Z,78.99
2022-11-10T00:38:45.505Z,80.24
2022-11-10T00:41:27.610Z,79.45
2022-11-10T00:44:11.029Z,78.46
2022-11-10T00:46:52.859Z,78.09
2022-11-10T00:49:34.639Z,79.18
2022-11-10T00:52:16.639Z,78.48
2022-11-10T00:54:58.692Z,77.75
2022-11-10T00:57:41.025Z,77.64
2022-11-10T01:00:24.950Z,77.41
2022-11-10T01:03:07.680Z,77.51
2022-11-10T01:05:49.640Z,77.31
2022-11-10T01:08:31.678Z,76.78
2022-11-10T01:11:16.791Z,77.07
2022-11-10T01:13:59.418Z,76.55
2022-11-10T01:16:43.100Z,76.78
2022-11-10T01:19:25.694Z,76.15
2022-11-10T01:22:08.058Z,76.18
2022-11-10T01:24:50.466Z,76.50
2022-11-10T01:27:32.483Z,75.94
2022-11-10T01:30:15.000Z,76.57
2022-11-10T01:32:59.004Z,76.64
2022-11-10T01:35:41.454Z,76.23
2022-11-10T01:38:24.149Z,76.14
2022-11-10T01:41:08.243Z,75.76
2022-11-10T01:43:50.579Z,75.77
2022-11-10T01:46:33.031Z,74.92
2022-11-10T01:49:18.978Z,75.04
2022-11-10T01:52:08.057Z,75.75
2022-11-10T01:54:51.257Z,74.63
2022-11-10T01:57:33.502Z,75.54
2022-11-10T02:00:18.018Z,75.32
2022-11-10T02:03:06.955Z,74.58
2022-11-10T02:05:53.038Z,74.60
2022-11-10T02:08:36.783Z,74.00
2022-11-10T02:11:19.276Z,75.56
2022-11-10T02:14:02.161Z,75.15
2022-11-10T02:16:44.774Z,75.02
2022-11-10T02:19:28.031Z,75.55
2022-11-10T02:22:11.725Z,76.25
2022-11-10T02:24:53.915Z,75.71
2022-11-10T02:27:36.352Z,75.48
2022-11-10T02:30:19.001Z,75.15
2022-11-10T02:33:02.898Z,76.59
2022-11-10T02:35:45.121Z,75.17
2022-11-10T02:38:28.797Z,75.37
2022-11-10T02:41:11.353Z,75.03
2022-11-10T02:43:54.874Z,74.84
2022-11-10T02:46:37.573Z,75.28
2022-11-10T02:49:19.834Z,76.64
2022-11-10T02:52:02.318Z,75.94
2022-11-10T02:54:46.215Z,76.14
2022-11-10T02:57:28.287Z,76.38
2022-11-10T03:00:12.140Z,75.77
2022-11-10T03:02:57.989Z,74.84
2022-11-10T03:05:40.602Z,76.18
2022-11-10T03:08:22.967Z,75.39
2022-11-10T03:11:06.470Z,75.15
2022-11-10T03:14:00.965Z,75.32
2022-11-10T03:16:44.361Z,75.61
2022-11-10T03:19:26.818Z,75.91
2022-11-10T03:22:08.781Z,75.77
2022-11-10T03:24:51.133Z,75.63
2022-11-10T03:27:34.716Z,75.98
2022-11-10T03:30:16.758Z,76.87
2022-11-10T03:32:59.425Z,75.68
2022-11-10T03:35:41.597Z,76.71
2022-11-10T03:38:23.473Z,76.27
2022-11-10T03:41:19.374Z,76.21
2022-11-10T03:44:04.260Z,76.32
2022-11-10T03:46:51.323Z,76.25
2022-11-10T03:49:33.691Z,76.18
2022-11-10T03:52:15.593Z,75.79
2022-11-10T03:55:02.935Z,76.18
2022-11-10T03:57:46.054Z,76.30
2022-11-10T04:00:30.334Z,76.44
2022-11-10T04:03:12.563Z,76.33
2022-11-10T04:06:12.432Z,76.22
2022-11-10T04:09:00.428Z,76.97
2022-11-10T04:11:59.583Z,77.64
2022-11-10T04:14:59.257Z,77.48
2022-11-10T04:17:42.746Z,78.54
2022-11-10T04:20:24.925Z,78.07
2022-11-10T04:23:24.764Z,77.45
2022-11-10T04:26:27.091Z,77.65
2022-11-10T04:29:11.478Z,77.46
2022-11-10T04:31:53.815Z,77.55
2022-11-10T04:34:37.547Z,78.74
2022-11-10T04:37:19.652Z,78.70
2022-11-10T04:40:02.087Z,77.76
2022-11-10T04:42:43.922Z,77.54
2022-11-10T04:45:25.847Z,78.62
2022-11-10T04:48:08.263Z,78.79
2022-11-10T04:50:52.757Z,79.48
2022-11-10T04:53:35.399Z,80.46
2022-11-10T04:56:18.965Z,79.35
2022-11-10T04:59:01.015Z,78.83
2022-11-10T05:01:42.924Z,79.20
2022-11-10T05:04:25.165Z,79.65
2022-11-10T05:07:08.383Z,79.91
2022-11-10T05:09:50.871Z,80.52
2022-11-10T05:12:33.235Z,81.22
2022-11-10T05:15:15.323Z,80.92
2022-11-10T05:17:57.704Z,80.19
2022-11-10T05:20:39.810Z,81.91
2022-11-10T05:23:44.114Z,81.52
2022-11-10T05:26:26.267Z,82.25
2022-11-10T05:29:08.861Z,82.46
2022-11-10T05:31:51.738Z,82.35
2022-11-10T05:34:34.030Z,82.75
2022-11-10T05:37:15.933Z,82.39
2022-11-10T05:39:59.385Z,81.75
2022-11-10T05:42:45.078Z,83.22
2022-11-10T05:45:29.677Z,82.23
2022-11-10T05:48:11.611Z,81.95
2022-11-10T05:50:53.762Z,82.52
2022-11-10T05:53:35.694Z,83.24
2022-11-10T05:56:19.603Z,82.41
2022-11-10T05:59:01.563Z,82.42
2022-11-10T06:01:43.938Z,83.29
2022-11-10T06:04:26.101Z,83.48
2022-11-10T06:07:08.198Z,83.25
2022-11-10T06:09:50.583Z,83.93
2022-11-10T06:12:34.298Z,83.25
2022-11-10T06:15:17.051Z,83.64
2022-11-10T06:17:59.534Z,83.24
2022-11-10T06:20:41.699Z,82.50
2022-11-10T06:23:24.345Z,83.22
2022-11-10T06:26:07.161Z,83.58
2022-11-10T06:28:50.915Z,84.76
2022-11-10T06:31:33.062Z,85.38
2022-11-10T06:34:14.975Z,84.60
2022-11-10T06:36:56.959Z,85.18
2022-11-10T06:39:39.370Z,83.74
2022-11-10T06:42:21.488Z,84.07
2022-11-10T06:45:05.718Z,83.46
2022-11-10T06:47:47.631Z,83.11
2022-11-10T06:50:30.304Z,83.86
2022-11-10T06:53:13.735Z,84.48
2022-11-10T06:55:56.286Z,84.77
2022-11-10T06:58:38.048Z,85.54
2022-11-10T07:01:22.737Z,85.03
2022-11-10T07:04:19.114Z,85.92
2022-11-10T07:07:02.426Z,85.62
2022-11-10T07:09:44.750Z,86.05
2022-11-10T07:12:26.545Z,86.14
2022-11-10T07:15:10.868Z,86.96
2022-11-10T07:17:54.325Z,85.96
2022-11-10T07:20:37.083Z,86.69
2022-11-10T07:23:19.557Z,86.15
2022-11-10T07:26:02.129Z,86.08
2022-11-10T07:28:44.389Z,85.86
2022-11-10T07:31:26.625Z,85.51
2022-11-10T07:34:11.077Z,84.53
2022-11-10T07:36:52.863Z,84.17
2022-11-10T07:39:34.851Z,83.94
2022-11-10T07:42:16.749Z,83.91
2022-11-10T07:44:58.839Z,84.67
2022-11-10T07:47:40.747Z,83.72
2022-11-10T07:50:24.132Z,83.86
2022-11-10T07:53:07.976Z,83.27
2022-11-10T07:55:50.362Z,83.70
2022-11-10T07:58:33.165Z,82.69
2022-11-10T08:01:15.503Z,82.59
2022-11-10T08:03:57.813Z,82.77
2022-11-10T08:06:41.078Z,82.28
2022-11-10T08:09:23.247Z,82.09
2022-11-10T08:12:06.718Z,82.30
2022-11-10T08:14:48.943Z,82.49
2022-11-10T08:17:31.299Z,82.48
2022-11-10T08:20:13.610Z,81.80
2022-11-10T08:23:01.104Z,81.63
2022-11-10T08:25:43.798Z,81.25
2022-11-10T08:28:26.356Z,81.62
2022-11-10T08:31:08.847Z,81.85
2022-11-10T08:33:51.444Z,80.92
2022-11-10T08:36:33.314Z,79.97
2022-11-10T08:39:30.328Z,81.36
2022-11-10T08:42:19.051Z,79.22
2022-11-10T08:45:01.010Z,78.72
2022-11-10T08:47:44.735Z,78.43
2022-11-10T08:50:27.229Z,78.62
2022-11-10T08:53:13.152Z,78.51
2022-11-10T08:56:00.694Z,76.47
2022-11-10T08:58:50.268Z,75.94
2022-11-10T09:01:35.463Z,75.91
2022-11-10T09:04:18.023Z,76.19
2022-11-10T09:07:00.442Z,73.81
2022-11-10T09:09:43.136Z,72.76
2022-11-10T09:12:28.707Z,71.58
2022-11-10T09:15:12.722Z,71.58
2022-11-10T09:17:54.929Z,70.52
2022-11-10T09:20:39.171Z,71.03
2022-11-10T09:23:22.503Z,69.77
2022-11-10T09:26:06.939Z,69.10
2022-11-10T09:28:51.429Z,69.85
2022-11-10T09:31:33.698Z,69.01
2022-11-10T09:34:15.930Z,69.38
2022-11-10T09:36:57.938Z,68.45
2022-11-10T09:39:39.923Z,67.36
2022-11-10T09:42:31.634Z,67.57
2022-11-10T09:45:25.248Z,65.17
2022-11-10T09:48:17.034Z,65.57
2022-11-10T09:51:04.622Z,65.41
2022-11-10T09:53:52.585Z,65.64
2022-11-10T09:56:36.938Z,66.63
2022-11-10T09:59:26.658Z,67.61
2022-11-10T10:02:24.050Z,67.56
2022-11-10T10:05:33.960Z,68.58
2022-11-10T10:08:26.385Z,68.43
2022-11-10T10:11:26.142Z,69.81
2022-11-10T10:14:37.586Z,69.21
2022-11-10T10:17:28.104Z,70.83
2022-11-10T10:20:17.049Z,71.13
2022-11-10T10:23:13.190Z,70.10
2022-11-10T10:25:55.767Z,70.92
2022-11-10T10:28:40.932Z,71.23
2022-11-10T10:31:25.483Z,70.52
2022-11-10T10:34:16.381Z,71.58
2022-11-10T10:36:58.780Z,72.10
2022-11-10T10:39:45.718Z,72.11
2022-11-10T10:42:34.201Z,71.58
2022-11-10T10:45:23.366Z,71.91
2022-11-10T10:48:26.255Z,72.31
2022-11-10T10:51:10.481Z,73.07
2022-11-10T10:53:53.045Z,71.95
2022-11-10T10:56:35.336Z,73.09
2022-11-10T10:59:22.825Z,71.71
2022-11-10T11:02:04.629Z,72.13
2022-11-10T11:04:46.715Z,72.96
2022-11-10T11:07:31.287Z,72.60
2022-11-10T11:10:23.492Z,71.47
2022-11-10T11:13:17.794Z,71.11
2022-11-10T11:16:02.363Z,71.15
2022-11-10T11:18:44.558Z,70.70
2022-11-10T11:21:35.034Z,70.63
2022-11-10T11:24:32.150Z,70.33
2022-11-10T11:27:21.778Z,71.60
2022-11-10T11:30:10.500Z,70.16
2022-11-10T11:33:11.169Z,70.26
2022-11-10T11:36:00.015Z,70.33
2022-11-10T11:38:54.479Z,71.34
2022-11-10T11:41:45.565Z,70.26
2022-11-10T11:44:45.410Z,70.82
2022-11-10T11:47:47.120Z,69.09
2022-11-10T11:50:33.797Z,70.50
2022-11-10T11:53:36.197Z,69.65
2022-11-10T11:56:25.948Z,69.37
2022-11-10T11:59:28.382Z,68.14
2022-11-10T12:02:35.583Z,68.71
2022-11-10T12:05:43.085Z,69.73
2022-11-10T12:08:38.039Z,70.54
2022-11-10T12:11:29.104Z,69.92
2022-11-10T12:14:21.967Z,69.99
2022-11-10T12:17:15.909Z,69.88
2022-11-10T12:20:05.342Z,69.76
2022-11-10T12:22:55.774Z,69.75
2022-11-10T12:25:49.926Z,69.16
2022-11-10T12:28:39.525Z,70.01
2022-11-10T12:31:26.870Z,69.32
2022-11-10T12:34:19.517Z,68.70
2022-11-10T12:37:06.760Z,69.06
2022-11-10T12:39:55.760Z,68.29
2022-11-10T12:42:40.110Z,68.21
2022-11-10T12:45:26.522Z,68.10
2022-11-10T12:48:13.074Z,69.68
2022-11-10T12:51:01.105Z,67.48
2022-11-10T12:53:45.822Z,67.48
2022-11-10T12:56:35.070Z,67.19
2022-11-10T12:59:32.669Z,68.97
2022-11-10T13:02:31.128Z,66.54
2022-11-10T13:05:45.284Z,67.20
2022-11-10T13:08:35.173Z,67.11
2022-11-10T13:11:29.435Z,66.83
2022-11-10T13:14:24.330Z,67.22
2022-11-10T13:17:07.109Z,67.25
2022-11-10T13:19:54.949Z,66.27
2022-11-10T13:22:40.970Z,67.18
2022-11-10T13:25:57.745Z,67.24
2022-11-10T13:29:02.762Z,67.12
2022-11-10T13:31:54.071Z,66.58
2022-11-10T13:34:37.458Z,65.57
2022-11-10T13:37:53.246Z,66.38
2022-11-10T13:40:39.457Z,65.99
2022-11-10T13:43:27.802Z,66.99
2022-11-10T13:46:10.089Z,67.57
2022-11-10T13:49:31.172Z,66.59
2022-11-10T13:52:17.906Z,66.14
2022-11-10T13:55:16.789Z,66.11
2022-11-10T13:58:04.362Z,66.42
2022-11-10T14:00:51.674Z,65.50
2022-11-10T14:04:02.042Z,65.22
2022-11-10T14:06:49.974Z,66.31
2022-11-10T14:09:39.637Z,65.03
2022-11-10T14:12:30.722Z,66.56
2022-11-10T14:15:18.684Z,65.39
2022-11-10T14:18:01.334Z,66.21
2022-11-10T14:20:45.619Z,66.24
2022-11-10T14:23:33.202Z,66.36
2022-11-10T14:26:25.126Z,66.64
2022-11-10T14:29:31.549Z,66.68
2022-11-10T14:32:21.394Z,67.59
2022-11-10T14:35:04.437Z,67.50
2022-11-10T14:37:46.857Z,67.37
2022-11-10T14:40:30.025Z,67.61
2022-11-10T14:43:27.554Z,68.52
2022-11-10T14:46:16.116Z,67.23
2022-11-10T14:49:00.319Z,66.39
2022-11-10T14:51:42.787Z,67.00
2022-11-10T14:54:28.714Z,66.63
2022-11-10T14:57:20.594Z,66.78
2022-11-10T15:00:02.663Z,67.87
2022-11-10T15:02:46.544Z,67.37
2022-11-10T15:05:31.572Z,67.52
2022-11-10T15:08:16.288Z,67.78
2022-11-10T15:10:58.837Z,67.74
2022-11-10T15:13:41.507Z,68.38
2022-11-10T15:16:26.726Z,67.71
2022-11-10T15:19:28.743Z,68.19
2022-11-10T15:22:19.134Z,68.13
2022-11-10T15:25:09.174Z,69.68
2022-11-10T15:27:59.505Z,67.95
2022-11-10T15:30:51.327Z,69.65
2022-11-10T15:33:35.784Z,68.83
2022-11-10T15:36:32.114Z,68.76
2022-11-10T15:39:23.323Z,68.41
2022-11-10T15:42:15.843Z,68.66
2022-11-10T15:44:58.940Z,69.29
2022-11-10T15:47:42.769Z,69.05
2022-11-10T15:50:24.994Z,69.26
2022-11-10T15:53:15.676Z,70.82
2022-11-10T15:55:57.682Z,71.00
2022-11-10T15:58:39.790Z,70.91
2022-11-10T16:01:22.579Z,72.10
2022-11-10T16:04:04.640Z,72.19
2022-11-10T16:06:47.340Z,72.35
2022-11-10T16:09:31.211Z,71.23
2022-11-10T16:12:20.039Z,72.41
2022-11-10T16:15:01.991Z,72.79
2022-11-10T16:17:44.173Z,72.17
2022-11-10T16:20:26.081Z,72.55
2022-11-10T16:23:08.990Z,72.50
2022-11-10T16:25:55.518Z,71.21
2022-11-10T16:28:37.653Z,72.69
2022-11-10T16:31:22.587Z,71.65
2022-11-10T16:34:04.776Z,72.89
2022-11-10T16:36:49.091Z,73.58
2022-11-10T16:39:32.115Z,73.08
2022-11-10T16:42:15.574Z,73.69
2022-11-10T16:44:57.552Z,73.60
2022-11-10T16:47:39.569Z,73.41
2022-11-10T16:50:32.966Z,73.14
2022-11-10T16:53:18.370Z,74.62
2022-11-10T16:56:00.282Z,74.54
2022-11-10T16:58:43.641Z,74.72
2022-11-10T17:01:29.434Z,74.00
2022-11-10T17:04:14.294Z,73.83
2022-11-10T17:06:56.477Z,74.26
2022-11-10T17:09:38.949Z,76.21
2022-11-10T17:12:20.854Z,75.76
2022-11-10T17:15:04.127Z,76.63
2022-11-10T17:17:50.630Z,76.84
2022-11-10T17:20:37.840Z,76.27
2022-11-10T17:23:24.401Z,76.61
2022-11-10T17:26:09.873Z,76.68
2022-11-10T17:28:52.429Z,77.07
2022-11-10T17:31:35.950Z,76.96
2022-11-10T17:34:18.115Z,77.04
2022-11-10T17:37:00.109Z,78.03
2022-11-10T17:39:42.086Z,77.09
2022-11-10T17:42:24.001Z,77.17
2022-11-10T17:45:07.367Z,76.68
2022-11-10T17:47:51.951Z,75.33
2022-11-10T17:50:34.766Z,76.18
2022-11-10T17:53:22.287Z,74.98
2022-11-10T17:56:05.336Z,75.61
2022-11-10T17:58:47.352Z,75.60
2022-11-10T18:01:29.402Z,75.01
2022-11-10T18:04:14.995Z,74.34
2022-11-10T18:06:57.727Z,75.11
2022-11-10T18:09:40.346Z,73.84
2022-11-10T18:12:27.633Z,74.11
2022-11-10T18:15:14.362Z,73.16
2022-11-10T18:18:00.931Z,73.53
2022-11-10T18:20:45.710Z,73.09
2022-11-10T18:23:27.978Z,72.33
2022-11-10T18:26:11.720Z,71.94
2022-11-10T18:28:54.228Z,72.29
2022-11-10T18:31:36.268Z,71.83
2022-11-10T18:34:18.086Z,71.43
2022-11-10T18:37:01.305Z,71.10
2022-11-10T18:39:43.901Z,71.16
2022-11-10T18:42:26.343Z,70.90
2022-11-10T18:45:09.885Z,71.10
2022-11-10T18:47:52.115Z,71.10
2022-11-10T18:50:34.251Z,70.65
2022-11-10T18:53:17.691Z,71.70
2022-11-10T18:55:59.939Z,70.65
2022-11-10T18:58:42.576Z,70.94
2022-11-10T19:01:25.775Z,70.82
2022-11-10T19:04:07.921Z,70.80
2022-11-10T19:06:50.362Z,69.02
2022-11-10T19:09:34.092Z,69.21
2022-11-10T19:12:16.526Z,69.75
2022-11-10T19:14:58.355Z,68.75
2022-11-10T19:17:40.724Z,70.00
2022-11-10T19:20:22.887Z,69.83
2022-11-10T19:23:05.595Z,70.20
2022-11-10T19:25:49.109Z,69.45
2022-11-10T19:28:31.461Z,69.40
2022-11-10T19:31:15.906Z,68.94
2022-11-10T19:33:59.589Z,68.90
2022-11-10T19:36:41.761Z,68.59
2022-11-10T19:39:24.333Z,69.00
2022-11-10T19:42:07.789Z,68.40
2022-11-10T19:44:49.721Z,68.65
2022-11-10T19:47:31.744Z,68.74
2022-11-10T19:50:13.915Z,68.79
2022-11-10T19:52:56.473Z,68.38
2022-11-10T19:55:38.586Z,68.95
2022-11-10T19:58:22.274Z,68.16
2022-11-10T20:01:05.134Z,68.29
2022-11-10T20:03:47.824Z,68.33
2022-11-10T20:06:30.011Z,67.73
2022-11-10T20:09:11.811Z,68.89
2022-11-10T20:11:54.329Z,69.94
2022-11-10T20:14:38.054Z,70.61
2022-11-10T20:17:20.224Z,69.32
2022-11-10T20:20:02.188Z,68.18
2022-11-10T20:22:44.263Z,69.32
2022-11-10T20:25:26.158Z,68.59
2022-11-10T20:28:09.095Z,68.47
2022-11-10T20:30:52.561Z,68.55
2022-11-10T20:33:35.302Z,68.13
2022-11-10T20:36:20.862Z,68.30
2022-11-10T20:39:03.369Z,68.51
2022-11-10T20:41:45.367Z,68.60
2022-11-10T20:44:27.480Z,68.84
2022-11-10T20:47:10.836Z,68.12
2022-11-10T20:49:53.034Z,67.92
2022-11-10T20:52:35.267Z,68.04
2022-11-10T20:55:18.438Z,68.46
2022-11-10T20:58:00.887Z,68.16
2022-11-10T21:00:44.435Z,68.97
2022-11-10T21:03:28.380Z,69.46
2022-11-10T21:06:11.076Z,68.44
2022-11-10T21:08:53.573Z,69.24
2022-11-10T21:11:52.793Z,68.89
2022-11-10T21:14:34.873Z,69.36
2022-11-10T21:17:16.814Z,70.16
2022-11-10T21:20:00.383Z,70.45
2022-11-10T21:22:42.619Z,70.42
2022-11-10T21:25:25.248Z,70.56
2022-11-10T21:28:07.893Z,71.11
2022-11-10T21:30:50.198Z,70.71
2022-11-10T21:33:32.282Z,71.46
2022-11-10T21:36:16.198Z,71.84
2022-11-10T21:38:59.152Z,72.64
2022-11-10T21:41:41.882Z,72.71
2022-11-10T21:44:31.442Z,72.33
2022-11-10T21:47:13.780Z,72.30
2022-11-10T21:49:56.133Z,72.59
2022-11-10T21:52:39.697Z,73.98
2022-11-10T21:55:22.139Z,72.48
2022-11-10T21:58:04.390Z,73.83
2022-11-10T22:00:46.670Z,74.69
2022-11-10T22:03:30.117Z,74.80
2022-11-10T22:06:15.281Z,75.35
2022-11-10T22:08:59.115Z,74.82
2022-11-10T22:12:03.958Z,74.96
2022-11-10T22:15:03.577Z,75.58
2022-11-10T22:18:03.295Z,75.19
2022-11-10T22:20:45.569Z,75.08
2022-11-10T22:23:45.815Z,74.42
2022-11-10T22:26:29.273Z,75.43
2022-11-10T22:29:11.680Z,74.73
2022-11-10T22:31:54.392Z,75.42
2022-11-10T22:34:36.378Z,76.81
2022-11-10T22:37:18.534Z,75.92
2022-11-10T22:40:18.826Z,76.24
2022-11-10T22:43:21.433Z,76.05
2022-11-10T22:46:04.394Z,76.63
2022-11-10T22:48:46.531Z,75.20
2022-11-10T22:51:30.771Z,76.43
2022-11-10T22:54:15.834Z,75.96
2022-11-10T22:56:58.271Z,76.49
2022-11-10T22:59:41.638Z,76.68
2022-11-10T23:02:23.731Z,76.85
2022-11-10T23:05:06.749Z,78.45
2022-11-10T23:07:49.376Z,77.76
2022-11-10T23:10:31.299Z,76.37
2022-11-10T23:13:14.665Z,77.53
2022-11-10T23:16:02.745Z,77.61
2022-11-10T23:18:47.210Z,77.97
2022-11-10T23:21:31.778Z,80.64
2022-11-10T23:24:14.528Z,79.01
2022-11-10T23:26:56.417Z,78.63
2022-11-10T23:29:38.939Z,79.93
2022-11-10T23:32:22.324Z,80.02
2022-11-10T23:35:04.829Z,79.89
2022-11-10T23:37:46.711Z,79.84
2022-11-10T23:40:29.249Z,80.98
2022-11-10T23:43:11.185Z,80.53
2022-11-10T23:46:06.463Z,79.84
2022-11-10T23:48:51.024Z,80.02
2022-11-10T23:51:33.225Z,80.49
2022-11-10T23:54:15.231Z,81.52
2022-11-10T23:56:57.769Z,81.51
2022-11-10T23:59:39.891Z,81.15
